sensor_id;sensor_type;location;lat;lon;timestamp;temperature;humidity
5560;DHT22;2803;47.916;8.074;2023-03-03T00:01:08;4.60;99.90
5560;DHT22;2803;47.916;8.074;2023-03-03T00:03:36;4.60;99.90
5560;DHT22;2803;47.916;8.074;2023-03-03T00:06:08;4.40;99.90
5560;DHT22;2803;47.916;8.074;2023-03-03T00:08:35;4.40;99.90
5560;DHT22;2803;47.916;8.074;2023-03-03T00:11:04;4.50;99.90
5560;DHT22;2803;47.916;8.074;2023-03-03T00:13:40;4.60;99.90
5560;DHT22;2803;47.916;8.074;2023-03-03T00:16:14;4.80;99.90
5560;DHT22;2803;47.916;8.074;2023-03-03T00:18:44;4.80;99.90
5560;DHT22;2803;47.916;8.074;2023-03-03T00:21:28;4.90;99.90
5560;DHT22;2803;47.916;8.074;2023-03-03T00:24:10;4.90;99.90
5560;DHT22;2803;47.916;8.074;2023-03-03T00:26:41;4.90;99.90
5560;DHT22;2803;47.916;8.074;2023-03-03T00:29:26;4.90;99.90
5560;DHT22;2803;47.916;8.074;2023-03-03T00:31:54;4.60;99.90
5560;DHT22;2803;47.916;8.074;2023-03-03T00:34:26;4.40;99.90
5560;DHT22;2803;47.916;8.074;2023-03-03T00:36:57;4.40;99.90
5560;DHT22;2803;47.916;8.074;2023-03-03T00:39:29;4.40;99.90
5560;DHT22;2803;47.916;8.074;2023-03-03T00:41:56;4.50;99.90
5560;DHT22;2803;47.916;8.074;2023-03-03T00:44:37;4.60;99.90
5560;DHT22;2803;47.916;8.074;2023-03-03T00:47:23;4.50;99.90
5560;DHT22;2803;47.916;8.074;2023-03-03T00:49:52;4.50;99.90
5560;DHT22;2803;47.916;8.074;2023-03-03T00:52:21;4.50;99.90
5560;DHT22;2803;47.916;8.074;2023-03-03T00:54:50;4.20;99.90
5560;DHT22;2803;47.916;8.074;2023-03-03T00:57:17;3.90;99.90
5560;DHT22;2803;47.916;8.074;2023-03-03T00:59:45;4.30;99.90
5560;DHT22;2803;47.916;8.074;2023-03-03T01:02:13;4.50;99.90
5560;DHT22;2803;47.916;8.074;2023-03-03T01:04:41;4.60;99.90
5560;DHT22;2803;47.916;8.074;2023-03-03T01:07:10;4.60;99.90
5560;DHT22;2803;47.916;8.074;2023-03-03T01:09:37;4.70;99.90
5560;DHT22;2803;47.916;8.074;2023-03-03T01:12:05;4.80;99.90
5560;DHT22;2803;47.916;8.074;2023-03-03T01:14:32;4.80;99.90
5560;DHT22;2803;47.916;8.074;2023-03-03T01:16:58;4.70;99.90
5560;DHT22;2803;47.916;8.074;2023-03-03T01:19:25;4.70;99.90
5560;DHT22;2803;47.916;8.074;2023-03-03T01:21:51;4.80;99.90
5560;DHT22;2803;47.916;8.074;2023-03-03T01:24:20;4.90;99.90
5560;DHT22;2803;47.916;8.074;2023-03-03T01:26:47;4.90;99.90
5560;DHT22;2803;47.916;8.074;2023-03-03T01:29:14;4.80;99.90
5560;DHT22;2803;47.916;8.074;2023-03-03T01:31:42;4.70;99.90
5560;DHT22;2803;47.916;8.074;2023-03-03T01:34:09;4.80;99.90
5560;DHT22;2803;47.916;8.074;2023-03-03T01:36:36;4.80;99.90
5560;DHT22;2803;47.916;8.074;2023-03-03T01:39:03;4.80;99.90
5560;DHT22;2803;47.916;8.074;2023-03-03T01:41:32;4.90;99.90
5560;DHT22;2803;47.916;8.074;2023-03-03T01:43:59;5.00;99.90
5560;DHT22;2803;47.916;8.074;2023-03-03T01:46:46;5.10;99.90
5560;DHT22;2803;47.916;8.074;2023-03-03T01:49:19;5.10;99.90
5560;DHT22;2803;47.916;8.074;2023-03-03T01:51:54;5.20;99.90
5560;DHT22;2803;47.916;8.074;2023-03-03T01:54:24;5.30;99.90
5560;DHT22;2803;47.916;8.074;2023-03-03T01:56:57;5.40;99.90
5560;DHT22;2803;47.916;8.074;2023-03-03T01:59:26;5.40;99.90
5560;DHT22;2803;47.916;8.074;2023-03-03T02:01:55;5.50;99.90
5560;DHT22;2803;47.916;8.074;2023-03-03T02:04:22;5.50;99.90
5560;DHT22;2803;47.916;8.074;2023-03-03T02:06:53;5.50;99.90
5560;DHT22;2803;47.916;8.074;2023-03-03T02:09:26;5.30;99.90
5560;DHT22;2803;47.916;8.074;2023-03-03T02:11:59;5.00;99.90
5560;DHT22;2803;47.916;8.074;2023-03-03T02:14:27;5.30;99.90
5560;DHT22;2803;47.916;8.074;2023-03-03T02:16:54;5.40;99.90
5560;DHT22;2803;47.916;8.074;2023-03-03T02:19:29;5.30;99.90
5560;DHT22;2803;47.916;8.074;2023-03-03T02:21:59;5.20;99.90
5560;DHT22;2803;47.916;8.074;2023-03-03T02:24:30;5.30;99.90
5560;DHT22;2803;47.916;8.074;2023-03-03T02:27:02;5.30;99.90
5560;DHT22;2803;47.916;8.074;2023-03-03T02:29:29;5.30;99.90
5560;DHT22;2803;47.916;8.074;2023-03-03T02:31:55;5.40;99.90
5560;DHT22;2803;47.916;8.074;2023-03-03T02:34:23;5.30;99.90
5560;DHT22;2803;47.916;8.074;2023-03-03T02:36:51;5.30;99.90
5560;DHT22;2803;47.916;8.074;2023-03-03T02:39:19;5.30;99.90
5560;DHT22;2803;47.916;8.074;2023-03-03T02:41:50;5.30;99.90
5560;DHT22;2803;47.916;8.074;2023-03-03T02:44:22;5.20;99.90
5560;DHT22;2803;47.916;8.074;2023-03-03T02:46:52;5.20;99.90
5560;DHT22;2803;47.916;8.074;2023-03-03T02:49:21;5.30;99.90
5560;DHT22;2803;47.916;8.074;2023-03-03T02:51:49;5.30;99.90
5560;DHT22;2803;47.916;8.074;2023-03-03T02:54:18;5.30;99.90
5560;DHT22;2803;47.916;8.074;2023-03-03T02:56:45;5.30;99.90
5560;DHT22;2803;47.916;8.074;2023-03-03T02:59:13;5.40;99.90
5560;DHT22;2803;47.916;8.074;2023-03-03T03:01:41;5.40;99.90
5560;DHT22;2803;47.916;8.074;2023-03-03T03:04:12;5.30;99.90
5560;DHT22;2803;47.916;8.074;2023-03-03T03:06:39;5.20;99.90
5560;DHT22;2803;47.916;8.074;2023-03-03T03:09:06;5.10;99.90
5560;DHT22;2803;47.916;8.074;2023-03-03T03:11:34;5.00;99.90
5560;DHT22;2803;47.916;8.074;2023-03-03T03:14:02;5.10;99.90
5560;DHT22;2803;47.916;8.074;2023-03-03T03:16:28;4.90;99.90
5560;DHT22;2803;47.916;8.074;2023-03-03T03:18:58;4.70;99.90
5560;DHT22;2803;47.916;8.074;2023-03-03T03:21:25;4.70;99.90
5560;DHT22;2803;47.916;8.074;2023-03-03T03:23:52;4.70;99.90
5560;DHT22;2803;47.916;8.074;2023-03-03T03:26:19;4.70;99.90
5560;DHT22;2803;47.916;8.074;2023-03-03T03:28:46;4.50;99.90
5560;DHT22;2803;47.916;8.074;2023-03-03T03:31:14;4.60;99.90
5560;DHT22;2803;47.916;8.074;2023-03-03T03:33:40;4.60;99.90
5560;DHT22;2803;47.916;8.074;2023-03-03T03:36:09;4.70;99.90
5560;DHT22;2803;47.916;8.074;2023-03-03T03:38:36;4.70;99.90
5560;DHT22;2803;47.916;8.074;2023-03-03T03:41:04;4.70;99.90
5560;DHT22;2803;47.916;8.074;2023-03-03T03:43:32;4.70;99.90
5560;DHT22;2803;47.916;8.074;2023-03-03T03:45:59;4.60;99.90
5560;DHT22;2803;47.916;8.074;2023-03-03T03:48:27;4.20;99.90
5560;DHT22;2803;47.916;8.074;2023-03-03T03:50:54;4.30;99.90
5560;DHT22;2803;47.916;8.074;2023-03-03T03:53:22;4.30;99.90
5560;DHT22;2803;47.916;8.074;2023-03-03T03:55:49;4.30;99.90
5560;DHT22;2803;47.916;8.074;2023-03-03T03:58:17;4.30;99.90
5560;DHT22;2803;47.916;8.074;2023-03-03T04:00:45;4.50;99.90
5560;DHT22;2803;47.916;8.074;2023-03-03T04:03:12;4.40;99.90
5560;DHT22;2803;47.916;8.074;2023-03-03T04:05:43;4.20;99.90
5560;DHT22;2803;47.916;8.074;2023-03-03T04:08:10;4.20;99.90
5560;DHT22;2803;47.916;8.074;2023-03-03T04:10:38;4.30;99.90
5560;DHT22;2803;47.916;8.074;2023-03-03T04:13:06;4.30;99.90
5560;DHT22;2803;47.916;8.074;2023-03-03T04:15:33;4.30;99.90
5560;DHT22;2803;47.916;8.074;2023-03-03T04:18:00;4.40;99.90
5560;DHT22;2803;47.916;8.074;2023-03-03T04:20:27;4.30;99.90
5560;DHT22;2803;47.916;8.074;2023-03-03T04:22:54;4.40;99.90
5560;DHT22;2803;47.916;8.074;2023-03-03T04:25:21;4.40;99.90
5560;DHT22;2803;47.916;8.074;2023-03-03T04:27:50;4.40;99.90
5560;DHT22;2803;47.916;8.074;2023-03-03T04:30:19;4.40;99.90
5560;DHT22;2803;47.916;8.074;2023-03-03T04:32:46;4.50;99.90
5560;DHT22;2803;47.916;8.074;2023-03-03T04:35:14;4.60;99.90
5560;DHT22;2803;47.916;8.074;2023-03-03T04:37:41;4.50;99.90
5560;DHT22;2803;47.916;8.074;2023-03-03T04:40:10;4.50;99.90
5560;DHT22;2803;47.916;8.074;2023-03-03T04:42:37;4.50;99.90
5560;DHT22;2803;47.916;8.074;2023-03-03T04:45:06;4.60;99.90
5560;DHT22;2803;47.916;8.074;2023-03-03T04:47:33;4.50;99.90
5560;DHT22;2803;47.916;8.074;2023-03-03T04:49:59;4.50;99.90
5560;DHT22;2803;47.916;8.074;2023-03-03T04:52:27;4.40;99.90
5560;DHT22;2803;47.916;8.074;2023-03-03T04:54:55;4.40;99.90
5560;DHT22;2803;47.916;8.074;2023-03-03T04:57:22;4.10;99.90
5560;DHT22;2803;47.916;8.074;2023-03-03T04:59:51;4.00;99.90
5560;DHT22;2803;47.916;8.074;2023-03-03T05:02:20;3.90;99.90
5560;DHT22;2803;47.916;8.074;2023-03-03T05:04:47;3.90;99.90
5560;DHT22;2803;47.916;8.074;2023-03-03T05:07:13;4.00;99.90
5560;DHT22;2803;47.916;8.074;2023-03-03T05:09:40;4.00;99.90
5560;DHT22;2803;47.916;8.074;2023-03-03T05:12:06;4.00;99.90
5560;DHT22;2803;47.916;8.074;2023-03-03T05:14:33;4.10;99.90
5560;DHT22;2803;47.916;8.074;2023-03-03T05:17:00;4.00;99.90
5560;DHT22;2803;47.916;8.074;2023-03-03T05:19:29;3.40;99.90
5560;DHT22;2803;47.916;8.074;2023-03-03T05:21:55;3.50;99.90
5560;DHT22;2803;47.916;8.074;2023-03-03T05:24:23;3.50;99.90
5560;DHT22;2803;47.916;8.074;2023-03-03T05:26:50;3.50;99.90
5560;DHT22;2803;47.916;8.074;2023-03-03T05:29:16;3.70;99.90
5560;DHT22;2803;47.916;8.074;2023-03-03T05:31:43;3.90;99.90
5560;DHT22;2803;47.916;8.074;2023-03-03T05:34:10;4.00;99.90
5560;DHT22;2803;47.916;8.074;2023-03-03T05:36:38;3.90;99.90
5560;DHT22;2803;47.916;8.074;2023-03-03T05:39:05;4.10;99.90
5560;DHT22;2803;47.916;8.074;2023-03-03T05:41:32;4.10;99.90
5560;DHT22;2803;47.916;8.074;2023-03-03T05:44:01;4.10;99.90
5560;DHT22;2803;47.916;8.074;2023-03-03T05:46:28;4.10;99.90
5560;DHT22;2803;47.916;8.074;2023-03-03T05:48:55;4.30;99.90
5560;DHT22;2803;47.916;8.074;2023-03-03T05:51:22;4.40;99.90
5560;DHT22;2803;47.916;8.074;2023-03-03T05:53:50;4.50;99.90
5560;DHT22;2803;47.916;8.074;2023-03-03T05:56:17;4.30;99.90
5560;DHT22;2803;47.916;8.074;2023-03-03T05:58:44;4.10;99.90
5560;DHT22;2803;47.916;8.074;2023-03-03T06:01:11;4.30;99.90
5560;DHT22;2803;47.916;8.074;2023-03-03T06:03:38;4.50;99.90
5560;DHT22;2803;47.916;8.074;2023-03-03T06:06:05;4.60;99.90
5560;DHT22;2803;47.916;8.074;2023-03-03T06:08:33;4.60;99.90
5560;DHT22;2803;47.916;8.074;2023-03-03T06:11:01;4.40;99.90
5560;DHT22;2803;47.916;8.074;2023-03-03T06:13:28;4.50;99.90
5560;DHT22;2803;47.916;8.074;2023-03-03T06:15:54;4.60;99.90
5560;DHT22;2803;47.916;8.074;2023-03-03T06:18:21;4.70;99.90
5560;DHT22;2803;47.916;8.074;2023-03-03T06:20:51;4.80;99.90
5560;DHT22;2803;47.916;8.074;2023-03-03T06:23:18;4.90;99.90
5560;DHT22;2803;47.916;8.074;2023-03-03T06:25:44;5.00;99.90
5560;DHT22;2803;47.916;8.074;2023-03-03T06:28:13;4.80;99.90
5560;DHT22;2803;47.916;8.074;2023-03-03T06:30:40;4.90;99.90
5560;DHT22;2803;47.916;8.074;2023-03-03T06:33:07;5.00;99.90
5560;DHT22;2803;47.916;8.074;2023-03-03T06:35:34;5.10;99.90
5560;DHT22;2803;47.916;8.074;2023-03-03T06:38:01;5.20;99.90
5560;DHT22;2803;47.916;8.074;2023-03-03T06:40:28;5.30;99.90
5560;DHT22;2803;47.916;8.074;2023-03-03T06:42:54;5.30;99.90
5560;DHT22;2803;47.916;8.074;2023-03-03T06:45:23;5.30;99.90
5560;DHT22;2803;47.916;8.074;2023-03-03T06:47:49;5.30;99.90
5560;DHT22;2803;47.916;8.074;2023-03-03T06:50:19;5.00;99.90
5560;DHT22;2803;47.916;8.074;2023-03-03T06:52:46;4.90;99.90
5560;DHT22;2803;47.916;8.074;2023-03-03T06:55:20;5.10;99.90
5560;DHT22;2803;47.916;8.074;2023-03-03T06:57:48;5.20;99.90
5560;DHT22;2803;47.916;8.074;2023-03-03T07:00:17;5.20;99.90
5560;DHT22;2803;47.916;8.074;2023-03-03T07:02:53;5.30;99.90
5560;DHT22;2803;47.916;8.074;2023-03-03T07:05:26;5.40;99.90
5560;DHT22;2803;47.916;8.074;2023-03-03T07:07:54;5.50;99.90
5560;DHT22;2803;47.916;8.074;2023-03-03T07:10:24;5.50;99.90
5560;DHT22;2803;47.916;8.074;2023-03-03T07:12:52;5.50;99.90
5560;DHT22;2803;47.916;8.074;2023-03-03T07:15:22;5.10;99.90
5560;DHT22;2803;47.916;8.074;2023-03-03T07:17:55;5.20;99.90
5560;DHT22;2803;47.916;8.074;2023-03-03T07:20:29;5.20;99.90
5560;DHT22;2803;47.916;8.074;2023-03-03T07:22:58;5.40;99.90
5560;DHT22;2803;47.916;8.074;2023-03-03T07:25:29;5.60;99.90
5560;DHT22;2803;47.916;8.074;2023-03-03T07:27:59;5.70;99.90
5560;DHT22;2803;47.916;8.074;2023-03-03T07:30:29;5.80;99.90
5560;DHT22;2803;47.916;8.074;2023-03-03T07:32:57;5.80;99.90
5560;DHT22;2803;47.916;8.074;2023-03-03T07:35:35;5.90;99.90
5560;DHT22;2803;47.916;8.074;2023-03-03T07:38:15;5.90;99.90
5560;DHT22;2803;47.916;8.074;2023-03-03T07:40:47;5.80;99.90
5560;DHT22;2803;47.916;8.074;2023-03-03T07:43:25;6.00;99.90
5560;DHT22;2803;47.916;8.074;2023-03-03T07:45:55;6.10;99.90
5560;DHT22;2803;47.916;8.074;2023-03-03T07:48:30;6.00;99.90
5560;DHT22;2803;47.916;8.074;2023-03-03T07:51:03;6.10;99.90
5560;DHT22;2803;47.916;8.074;2023-03-03T07:53:33;6.20;99.90
5560;DHT22;2803;47.916;8.074;2023-03-03T07:56:06;6.30;99.90
5560;DHT22;2803;47.916;8.074;2023-03-03T07:58:41;6.40;99.90
5560;DHT22;2803;47.916;8.074;2023-03-03T08:01:27;6.60;99.90
5560;DHT22;2803;47.916;8.074;2023-03-03T08:03:56;6.30;99.90
5560;DHT22;2803;47.916;8.074;2023-03-03T08:06:35;6.00;99.90
5560;DHT22;2803;47.916;8.074;2023-03-03T08:09:23;5.70;99.90
5560;DHT22;2803;47.916;8.074;2023-03-03T08:11:54;6.00;99.90
5560;DHT22;2803;47.916;8.074;2023-03-03T08:14:25;6.30;99.90
5560;DHT22;2803;47.916;8.074;2023-03-03T08:16:53;6.40;99.90
5560;DHT22;2803;47.916;8.074;2023-03-03T08:19:23;6.70;99.90
5560;DHT22;2803;47.916;8.074;2023-03-03T08:21:50;6.60;99.90
5560;DHT22;2803;47.916;8.074;2023-03-03T08:24:16;6.60;99.90
5560;DHT22;2803;47.916;8.074;2023-03-03T08:26:43;6.60;99.90
5560;DHT22;2803;47.916;8.074;2023-03-03T08:29:10;6.80;99.90
5560;DHT22;2803;47.916;8.074;2023-03-03T08:31:37;6.90;99.90
5560;DHT22;2803;47.916;8.074;2023-03-03T08:34:03;7.10;99.90
5560;DHT22;2803;47.916;8.074;2023-03-03T08:36:31;7.00;99.90
5560;DHT22;2803;47.916;8.074;2023-03-03T08:38:59;7.10;99.90
5560;DHT22;2803;47.916;8.074;2023-03-03T08:41:26;7.20;99.90
5560;DHT22;2803;47.916;8.074;2023-03-03T08:43:54;7.20;99.90
5560;DHT22;2803;47.916;8.074;2023-03-03T08:46:21;7.30;99.90
5560;DHT22;2803;47.916;8.074;2023-03-03T08:48:49;7.30;99.90
5560;DHT22;2803;47.916;8.074;2023-03-03T08:51:17;7.40;99.90
5560;DHT22;2803;47.916;8.074;2023-03-03T08:53:45;7.60;99.90
5560;DHT22;2803;47.916;8.074;2023-03-03T08:56:13;7.30;99.90
5560;DHT22;2803;47.916;8.074;2023-03-03T08:58:39;7.40;99.90
5560;DHT22;2803;47.916;8.074;2023-03-03T09:01:13;7.50;99.90
5560;DHT22;2803;47.916;8.074;2023-03-03T09:03:40;7.60;99.90
5560;DHT22;2803;47.916;8.074;2023-03-03T09:06:07;7.60;99.90
5560;DHT22;2803;47.916;8.074;2023-03-03T09:08:34;7.50;99.90
5560;DHT22;2803;47.916;8.074;2023-03-03T09:11:05;7.60;99.90
5560;DHT22;2803;47.916;8.074;2023-03-03T09:13:34;7.70;99.90
5560;DHT22;2803;47.916;8.074;2023-03-03T09:16:10;7.70;99.90
5560;DHT22;2803;47.916;8.074;2023-03-03T09:18:37;7.80;99.90
5560;DHT22;2803;47.916;8.074;2023-03-03T09:21:18;8.10;99.90
5560;DHT22;2803;47.916;8.074;2023-03-03T09:23:51;8.10;99.90
5560;DHT22;2803;47.916;8.074;2023-03-03T09:26:29;8.20;99.90
5560;DHT22;2803;47.916;8.074;2023-03-03T09:29:14;8.20;99.90
5560;DHT22;2803;47.916;8.074;2023-03-03T09:31:44;8.30;99.90
5560;DHT22;2803;47.916;8.074;2023-03-03T09:34:18;8.20;99.90
5560;DHT22;2803;47.916;8.074;2023-03-03T09:36:46;8.40;99.90
5560;DHT22;2803;47.916;8.074;2023-03-03T09:39:16;8.40;99.90
5560;DHT22;2803;47.916;8.074;2023-03-03T09:42:04;8.50;99.90
5560;DHT22;2803;47.916;8.074;2023-03-03T09:47:46;8.50;99.90
5560;DHT22;2803;47.916;8.074;2023-03-03T09:50:25;8.70;99.90
5560;DHT22;2803;47.916;8.074;2023-03-03T09:53:06;8.80;99.90
5560;DHT22;2803;47.916;8.074;2023-03-03T09:55:42;8.80;99.90
5560;DHT22;2803;47.916;8.074;2023-03-03T09:58:22;9.00;99.90
5560;DHT22;2803;47.916;8.074;2023-03-03T10:01:01;9.00;99.90
5560;DHT22;2803;47.916;8.074;2023-03-03T10:06:25;9.30;99.90
5560;DHT22;2803;47.916;8.074;2023-03-03T10:09:02;9.40;99.90
5560;DHT22;2803;47.916;8.074;2023-03-03T10:11:38;9.60;99.90
5560;DHT22;2803;47.916;8.074;2023-03-03T10:14:25;9.70;99.90
5560;DHT22;2803;47.916;8.074;2023-03-03T10:17:04;9.60;99.90
5560;DHT22;2803;47.916;8.074;2023-03-03T10:22:36;9.90;99.90
5560;DHT22;2803;47.916;8.074;2023-03-03T10:25:16;10.10;99.90
5560;DHT22;2803;47.916;8.074;2023-03-03T10:27:55;10.10;99.90
5560;DHT22;2803;47.916;8.074;2023-03-03T10:30:36;10.20;99.90
5560;DHT22;2803;47.916;8.074;2023-03-03T10:33:08;10.40;99.90
5560;DHT22;2803;47.916;8.074;2023-03-03T10:35:46;10.30;99.90
5560;DHT22;2803;47.916;8.074;2023-03-03T10:38:25;10.40;99.90
5560;DHT22;2803;47.916;8.074;2023-03-03T10:41:01;10.60;99.90
5560;DHT22;2803;47.916;8.074;2023-03-03T10:43:42;10.70;99.90
5560;DHT22;2803;47.916;8.074;2023-03-03T10:46:21;10.80;99.90
5560;DHT22;2803;47.916;8.074;2023-03-03T10:49:04;10.90;99.90
5560;DHT22;2803;47.916;8.074;2023-03-03T10:51:43;11.20;99.90
5560;DHT22;2803;47.916;8.074;2023-03-03T10:54:29;11.20;99.90
5560;DHT22;2803;47.916;8.074;2023-03-03T10:57:03;11.00;99.90
5560;DHT22;2803;47.916;8.074;2023-03-03T10:59:46;11.10;99.90
5560;DHT22;2803;47.916;8.074;2023-03-03T11:02:21;11.30;99.90
5560;DHT22;2803;47.916;8.074;2023-03-03T11:05:01;11.50;99.90
5560;DHT22;2803;47.916;8.074;2023-03-03T11:07:34;11.60;99.90
5560;DHT22;2803;47.916;8.074;2023-03-03T11:10:20;11.30;99.90
5560;DHT22;2803;47.916;8.074;2023-03-03T11:12:56;11.30;99.90
5560;DHT22;2803;47.916;8.074;2023-03-03T11:15:40;11.00;99.90
5560;DHT22;2803;47.916;8.074;2023-03-03T11:18:32;10.90;99.90
5560;DHT22;2803;47.916;8.074;2023-03-03T11:21:08;10.70;99.90
5560;DHT22;2803;47.916;8.074;2023-03-03T11:23:49;10.80;99.90
5560;DHT22;2803;47.916;8.074;2023-03-03T11:26:33;10.40;99.90
5560;DHT22;2803;47.916;8.074;2023-03-03T11:29:11;10.40;99.90
5560;DHT22;2803;47.916;8.074;2023-03-03T11:31:45;10.50;99.90
5560;DHT22;2803;47.916;8.074;2023-03-03T11:34:29;10.50;99.90
5560;DHT22;2803;47.916;8.074;2023-03-03T11:37:01;10.40;99.90
5560;DHT22;2803;47.916;8.074;2023-03-03T11:39:29;10.50;99.90
5560;DHT22;2803;47.916;8.074;2023-03-03T11:42:03;10.50;99.90
5560;DHT22;2803;47.916;8.074;2023-03-03T11:44:35;10.30;99.90
5560;DHT22;2803;47.916;8.074;2023-03-03T11:47:08;10.30;99.90
5560;DHT22;2803;47.916;8.074;2023-03-03T11:49:42;10.00;99.90
5560;DHT22;2803;47.916;8.074;2023-03-03T11:52:21;10.10;99.90
5560;DHT22;2803;47.916;8.074;2023-03-03T11:54:55;10.00;99.90
5560;DHT22;2803;47.916;8.074;2023-03-03T11:57:30;9.80;99.90
5560;DHT22;2803;47.916;8.074;2023-03-03T12:00:03;9.90;99.90
5560;DHT22;2803;47.916;8.074;2023-03-03T12:02:46;9.80;99.90
5560;DHT22;2803;47.916;8.074;2023-03-03T12:05:30;9.80;99.90
5560;DHT22;2803;47.916;8.074;2023-03-03T12:08:05;10.00;99.90
5560;DHT22;2803;47.916;8.074;2023-03-03T12:10:36;10.10;99.90
5560;DHT22;2803;47.916;8.074;2023-03-03T12:13:12;10.70;99.90
5560;DHT22;2803;47.916;8.074;2023-03-03T12:15:50;11.00;99.90
5560;DHT22;2803;47.916;8.074;2023-03-03T12:18:34;11.10;99.90
5560;DHT22;2803;47.916;8.074;2023-03-03T12:21:16;10.80;99.90
5560;DHT22;2803;47.916;8.074;2023-03-03T12:24:02;10.30;99.90
5560;DHT22;2803;47.916;8.074;2023-03-03T12:26:39;10.20;99.90
5560;DHT22;2803;47.916;8.074;2023-03-03T12:29:21;9.90;99.90
5560;DHT22;2803;47.916;8.074;2023-03-03T12:31:57;10.00;99.90
5560;DHT22;2803;47.916;8.074;2023-03-03T12:34:33;10.20;99.90
5560;DHT22;2803;47.916;8.074;2023-03-03T12:37:17;10.10;99.90
5560;DHT22;2803;47.916;8.074;2023-03-03T12:39:53;10.30;99.90
5560;DHT22;2803;47.916;8.074;2023-03-03T12:42:32;9.80;99.90
5560;DHT22;2803;47.916;8.074;2023-03-03T12:45:08;10.10;99.90
5560;DHT22;2803;47.916;8.074;2023-03-03T12:47:38;10.50;99.90
5560;DHT22;2803;47.916;8.074;2023-03-03T12:50:21;10.70;99.90
5560;DHT22;2803;47.916;8.074;2023-03-03T12:52:58;10.70;99.90
5560;DHT22;2803;47.916;8.074;2023-03-03T12:55:36;10.50;99.90
5560;DHT22;2803;47.916;8.074;2023-03-03T12:58:13;10.30;99.90
5560;DHT22;2803;47.916;8.074;2023-03-03T13:00:53;10.00;99.90
5560;DHT22;2803;47.916;8.074;2023-03-03T13:03:37;10.20;99.90
5560;DHT22;2803;47.916;8.074;2023-03-03T13:06:13;10.30;99.90
5560;DHT22;2803;47.916;8.074;2023-03-03T13:08:52;10.30;99.90
5560;DHT22;2803;47.916;8.074;2023-03-03T13:14:20;10.10;99.90
5560;DHT22;2803;47.916;8.074;2023-03-03T13:16:53;10.50;99.90
5560;DHT22;2803;47.916;8.074;2023-03-03T13:19:27;11.30;99.90
5560;DHT22;2803;47.916;8.074;2023-03-03T13:21:57;11.60;99.90
5560;DHT22;2803;47.916;8.074;2023-03-03T13:24:31;11.40;99.90
5560;DHT22;2803;47.916;8.074;2023-03-03T13:27:03;11.20;99.90
5560;DHT22;2803;47.916;8.074;2023-03-03T13:29:34;11.10;99.90
5560;DHT22;2803;47.916;8.074;2023-03-03T13:32:07;10.90;99.90
5560;DHT22;2803;47.916;8.074;2023-03-03T13:34:40;10.80;99.90
5560;DHT22;2803;47.916;8.074;2023-03-03T13:37:16;10.50;99.90
5560;DHT22;2803;47.916;8.074;2023-03-03T13:39:59;10.80;99.90
5560;DHT22;2803;47.916;8.074;2023-03-03T13:42:32;10.90;99.90
5560;DHT22;2803;47.916;8.074;2023-03-03T13:45:14;10.90;99.90
5560;DHT22;2803;47.916;8.074;2023-03-03T13:47:47;11.10;99.90
5560;DHT22;2803;47.916;8.074;2023-03-03T13:50:22;11.00;99.90
5560;DHT22;2803;47.916;8.074;2023-03-03T13:53:04;10.70;99.90
5560;DHT22;2803;47.916;8.074;2023-03-03T13:55:35;10.40;99.90
5560;DHT22;2803;47.916;8.074;2023-03-03T13:58:12;9.90;99.90
5560;DHT22;2803;47.916;8.074;2023-03-03T14:00:51;9.70;99.90
5560;DHT22;2803;47.916;8.074;2023-03-03T14:03:44;10.10;99.90
5560;DHT22;2803;47.916;8.074;2023-03-03T14:06:14;10.30;99.90
5560;DHT22;2803;47.916;8.074;2023-03-03T14:08:52;10.00;99.90
5560;DHT22;2803;47.916;8.074;2023-03-03T14:11:27;9.80;99.90
5560;DHT22;2803;47.916;8.074;2023-03-03T14:14:01;9.40;99.90
5560;DHT22;2803;47.916;8.074;2023-03-03T14:16:38;9.50;99.90
5560;DHT22;2803;47.916;8.074;2023-03-03T14:19:13;9.80;99.90
5560;DHT22;2803;47.916;8.074;2023-03-03T14:21:46;9.70;99.90
5560;DHT22;2803;47.916;8.074;2023-03-03T14:24:16;9.40;99.90
5560;DHT22;2803;47.916;8.074;2023-03-03T14:26:47;9.70;99.90
5560;DHT22;2803;47.916;8.074;2023-03-03T14:29:20;9.60;99.90
5560;DHT22;2803;47.916;8.074;2023-03-03T14:31:48;9.80;99.90
5560;DHT22;2803;47.916;8.074;2023-03-03T14:34:29;9.80;99.90
5560;DHT22;2803;47.916;8.074;2023-03-03T14:37:17;10.00;99.90
5560;DHT22;2803;47.916;8.074;2023-03-03T14:39:50;10.30;99.90
5560;DHT22;2803;47.916;8.074;2023-03-03T14:42:36;10.50;99.90
5560;DHT22;2803;47.916;8.074;2023-03-03T14:45:19;10.50;99.90
5560;DHT22;2803;47.916;8.074;2023-03-03T14:47:46;10.30;99.90
5560;DHT22;2803;47.916;8.074;2023-03-03T14:50:31;10.20;99.90
5560;DHT22;2803;47.916;8.074;2023-03-03T14:53:06;10.00;99.90
5560;DHT22;2803;47.916;8.074;2023-03-03T14:55:36;10.10;99.90
5560;DHT22;2803;47.916;8.074;2023-03-03T14:58:11;10.40;99.90
5560;DHT22;2803;47.916;8.074;2023-03-03T15:00:49;10.20;99.90
5560;DHT22;2803;47.916;8.074;2023-03-03T15:03:21;10.40;99.90
5560;DHT22;2803;47.916;8.074;2023-03-03T15:05:49;10.60;99.90
5560;DHT22;2803;47.916;8.074;2023-03-03T15:08:23;10.60;99.90
5560;DHT22;2803;47.916;8.074;2023-03-03T15:10:52;10.60;99.90
5560;DHT22;2803;47.916;8.074;2023-03-03T15:13:32;10.80;99.90
5560;DHT22;2803;47.916;8.074;2023-03-03T15:16:04;10.80;99.90
5560;DHT22;2803;47.916;8.074;2023-03-03T15:18:31;10.70;99.90
5560;DHT22;2803;47.916;8.074;2023-03-03T15:21:02;10.50;99.90
5560;DHT22;2803;47.916;8.074;2023-03-03T15:23:43;10.60;99.90
5560;DHT22;2803;47.916;8.074;2023-03-03T15:26:17;10.60;99.90
5560;DHT22;2803;47.916;8.074;2023-03-03T15:28:57;10.60;99.90
5560;DHT22;2803;47.916;8.074;2023-03-03T15:31:34;10.50;99.90
5560;DHT22;2803;47.916;8.074;2023-03-03T15:34:17;10.20;99.90
5560;DHT22;2803;47.916;8.074;2023-03-03T15:36:53;10.20;99.90
5560;DHT22;2803;47.916;8.074;2023-03-03T15:39:28;10.30;99.90
5560;DHT22;2803;47.916;8.074;2023-03-03T15:42:03;10.60;99.90
5560;DHT22;2803;47.916;8.074;2023-03-03T15:44:41;10.30;99.90
5560;DHT22;2803;47.916;8.074;2023-03-03T15:47:21;10.20;99.90
5560;DHT22;2803;47.916;8.074;2023-03-03T15:50:04;10.20;99.90
5560;DHT22;2803;47.916;8.074;2023-03-03T15:52:47;10.40;99.90
5560;DHT22;2803;47.916;8.074;2023-03-03T15:55:26;10.70;99.90
5560;DHT22;2803;47.916;8.074;2023-03-03T15:58:07;10.50;99.90
5560;DHT22;2803;47.916;8.074;2023-03-03T16:00:44;10.40;99.90
5560;DHT22;2803;47.916;8.074;2023-03-03T16:03:19;10.50;99.90
5560;DHT22;2803;47.916;8.074;2023-03-03T16:05:52;10.70;99.90
5560;DHT22;2803;47.916;8.074;2023-03-03T16:08:23;10.30;99.90
5560;DHT22;2803;47.916;8.074;2023-03-03T16:11:00;10.50;99.90
5560;DHT22;2803;47.916;8.074;2023-03-03T16:13:39;10.60;99.90
5560;DHT22;2803;47.916;8.074;2023-03-03T16:16:18;10.40;99.90
5560;DHT22;2803;47.916;8.074;2023-03-03T16:18:57;10.60;99.90
5560;DHT22;2803;47.916;8.074;2023-03-03T16:21:39;10.60;99.90
5560;DHT22;2803;47.916;8.074;2023-03-03T16:24:22;10.20;99.90
5560;DHT22;2803;47.916;8.074;2023-03-03T16:27:00;10.40;99.90
5560;DHT22;2803;47.916;8.074;2023-03-03T16:29:39;10.70;99.90
5560;DHT22;2803;47.916;8.074;2023-03-03T16:32:14;10.40;99.90
5560;DHT22;2803;47.916;8.074;2023-03-03T16:34:53;10.50;99.90
5560;DHT22;2803;47.916;8.074;2023-03-03T16:37:28;10.40;99.90
5560;DHT22;2803;47.916;8.074;2023-03-03T16:40:00;10.10;99.90
5560;DHT22;2803;47.916;8.074;2023-03-03T16:42:30;10.20;99.90
5560;DHT22;2803;47.916;8.074;2023-03-03T16:45:05;10.30;99.90
5560;DHT22;2803;47.916;8.074;2023-03-03T16:47:42;10.30;99.90
5560;DHT22;2803;47.916;8.074;2023-03-03T16:50:21;10.50;99.90
5560;DHT22;2803;47.916;8.074;2023-03-03T16:52:52;10.60;99.90
5560;DHT22;2803;47.916;8.074;2023-03-03T16:55:24;10.50;99.90
5560;DHT22;2803;47.916;8.074;2023-03-03T16:58:01;10.30;99.90